createdAt,value
2023-03-25T00:01:15.052Z,92754.56
2023-03-25T00:02:48.432Z,92746.50
2023-03-25T00:04:20.182Z,92744.91
2023-03-25T00:05:52.275Z,92745.22
2023-03-25T00:07:24.317Z,92742.53
2023-03-25T00:08:56.012Z,92743.50
2023-03-25T00:10:27.491Z,92744.59
2023-03-25T00:11:58.939Z,92736.84
2023-03-25T00:13:31.868Z,92737.47
2023-03-25T00:15:04.338Z,92750.44
2023-03-25T00:16:37.021Z,92739.97
2023-03-25T00:18:08.606Z,92749.81
2023-03-25T00:19:41.569Z,92742.22
2023-03-25T00:21:13.091Z,92742.22
2023-03-25T00:22:44.985Z,92748.09
2023-03-25T00:24:18.065Z,92741.13
2023-03-25T00:25:50.083Z,92738.44
2023-03-25T00:27:21.919Z,92725.41
2023-03-25T00:28:53.446Z,92733.19
2023-03-25T00:30:25.360Z,92734.78
2023-03-25T00:31:56.858Z,92732.22
2023-03-25T00:33:28.533Z,92725.09
2023-03-25T00:35:00.060Z,92729.22
2023-03-25T00:36:31.664Z,92724.94
2023-03-25T00:38:03.241Z,92719.06
2023-03-25T00:39:35.180Z,92725.56
2023-03-25T00:41:26.000Z,92723.34
2023-03-25T00:42:57.612Z,92719.38
2023-03-25T00:44:29.639Z,92724.28
2023-03-25T00:46:01.825Z,92723.66
2023-03-25T00:47:33.374Z,92723.16
2023-03-25T00:49:04.839Z,92721.59
2023-03-25T00:50:36.413Z,92720.47
2023-03-25T00:52:08.330Z,92722.06
2023-03-25T00:53:39.916Z,92710.19
2023-03-25T00:55:11.456Z,92716.84
2023-03-25T00:56:43.106Z,92717.78
2023-03-25T00:58:14.701Z,92716.88
2023-03-25T00:59:46.154Z,92718.13
2023-03-25T01:01:18.792Z,92717.19
2023-03-25T01:02:54.338Z,92716.56
2023-03-25T01:04:25.947Z,92712.75
2023-03-25T01:05:58.146Z,92703.59
2023-03-25T01:07:32.015Z,92710.56
2023-03-25T01:09:04.968Z,92707.38
2023-03-25T01:10:37.076Z,92702.97
2023-03-25T01:12:08.678Z,92710.22
2023-03-25T01:13:40.264Z,92706.25
2023-03-25T01:15:13.338Z,92711.31
2023-03-25T01:16:44.947Z,92710.06
2023-03-25T01:18:16.604Z,92706.28
2023-03-25T01:19:48.117Z,92701.38
2023-03-25T01:21:20.020Z,92693.28
2023-03-25T01:22:51.605Z,92702.16
2023-03-25T01:24:23.124Z,92696.31
2023-03-25T01:25:54.587Z,92692.50
2023-03-25T01:27:26.157Z,92693.44
2023-03-25T01:28:57.641Z,92689.47
2023-03-25T01:30:29.164Z,92689.78
2023-03-25T01:32:00.871Z,92684.72
2023-03-25T01:33:32.846Z,92677.13
2023-03-25T01:35:05.475Z,92673.66
2023-03-25T01:36:39.993Z,92672.06
2023-03-25T01:38:11.556Z,92679.22
2023-03-25T01:39:43.165Z,92666.06
2023-03-25T01:41:14.790Z,92667.50
2023-03-25T01:42:46.750Z,92662.44
2023-03-25T01:44:22.184Z,92659.91
2023-03-25T01:45:53.912Z,92664.63
2023-03-25T01:47:26.796Z,92656.72
2023-03-25T01:48:58.434Z,92652.00
2023-03-25T01:50:30.480Z,92652.78
2023-03-25T01:52:05.911Z,92650.88
2023-03-25T01:53:37.457Z,92654.81
2023-03-25T01:55:09.553Z,92652.91
2023-03-25T01:56:41.286Z,92652.00
2023-03-25T01:58:13.979Z,92656.88
2023-03-25T01:59:45.718Z,92653.22
2023-03-25T02:01:18.468Z,92658.63
2023-03-25T02:02:50.970Z,92649.75
2023-03-25T02:04:42.821Z,92647.06
2023-03-25T02:06:22.970Z,92648.34
2023-03-25T02:07:54.788Z,92653.72
2023-03-25T02:09:26.576Z,92649.13
2023-03-25T02:10:58.278Z,92644.22
2023-03-25T02:12:29.895Z,92647.06
2023-03-25T02:14:03.570Z,92646.59
2023-03-25T02:15:41.472Z,92640.75
2023-03-25T02:17:12.906Z,92646.28
2023-03-25T02:19:10.782Z,92634.72
2023-03-25T02:20:45.420Z,92640.59
2023-03-25T02:22:37.775Z,92641.22
2023-03-25T02:24:30.163Z,92639.78
2023-03-25T02:26:19.837Z,92642.16
2023-03-25T02:28:00.290Z,92642.97
2023-03-25T02:29:49.202Z,92641.38
2023-03-25T02:31:39.184Z,92633.94
2023-03-25T02:33:25.835Z,92636.13
2023-03-25T02:35:16.529Z,92638.50
2023-03-25T02:37:01.609Z,92642.00
2023-03-25T02:38:33.287Z,92640.28
2023-03-25T02:40:11.063Z,92646.13
2023-03-25T02:41:51.583Z,92641.22
2023-03-25T02:43:23.595Z,92641.19
2023-03-25T02:44:55.206Z,92644.84
2023-03-25T02:46:26.810Z,92650.38
2023-03-25T02:48:18.712Z,92640.28
2023-03-25T02:49:55.022Z,92631.88
2023-03-25T02:51:30.469Z,92638.22
2023-03-25T02:53:03.098Z,92639.00
2023-03-25T02:54:34.737Z,92636.13
2023-03-25T02:56:11.125Z,92635.66
2023-03-25T02:57:44.027Z,92637.41
2023-03-25T02:59:15.552Z,92625.69
2023-03-25T03:00:47.373Z,92629.28
2023-03-25T03:02:19.520Z,92633.72
2023-03-25T03:03:51.114Z,92626.13
2023-03-25T03:05:26.554Z,92630.53
2023-03-25T03:06:58.287Z,92626.59
2023-03-25T03:08:29.772Z,92628.16
2023-03-25T03:10:19.370Z,92627.38
2023-03-25T03:11:56.932Z,92628.00
2023-03-25T03:13:32.131Z,92618.38
2023-03-25T03:15:11.429Z,92624.06
2023-03-25T03:16:42.942Z,92620.91
2023-03-25T03:18:16.499Z,92622.31
2023-03-25T03:19:52.373Z,92622.91
2023-03-25T03:21:30.202Z,92619.28
2023-03-25T03:23:11.282Z,92622.28
2023-03-25T03:25:12.420Z,92623.56
2023-03-25T03:26:46.486Z,92616.13
2023-03-25T03:28:22.714Z,92617.53
2023-03-25T03:29:55.487Z,92621.50
2023-03-25T03:31:52.170Z,92627.00
2023-03-25T03:33:39.180Z,92617.53
2023-03-25T03:35:14.171Z,92617.97
2023-03-25T03:36:47.348Z,92623.16
2023-03-25T03:38:19.640Z,92625.31
2023-03-25T03:39:51.152Z,92618.69
2023-03-25T03:41:23.527Z,92626.44
2023-03-25T03:42:59.076Z,92623.09
2023-03-25T03:44:31.987Z,92623.47
2023-03-25T03:46:05.421Z,92617.94
2023-03-25T03:47:38.084Z,92617.00
2023-03-25T03:49:10.371Z,92616.34
2023-03-25T03:50:43.773Z,92617.72
2023-03-25T03:52:18.827Z,92619.47
2023-03-25T03:54:04.094Z,92623.88
2023-03-25T03:55:42.204Z,92628.59
2023-03-25T03:57:24.489Z,92624.63
2023-03-25T03:58:58.611Z,92617.69
2023-03-25T04:00:36.447Z,92621.94
2023-03-25T04:02:27.979Z,92618.78
2023-03-25T04:04:06.607Z,92620.66
2023-03-25T04:05:38.536Z,92620.66
2023-03-25T04:07:15.323Z,92623.66
2023-03-25T04:08:53.569Z,92629.19
2023-03-25T04:10:46.854Z,92622.81
2023-03-25T04:12:18.677Z,92634.22
2023-03-25T04:13:50.491Z,92637.09
2023-03-25T04:15:22.691Z,92633.97
2023-03-25T04:16:54.892Z,92636.53
2023-03-25T04:18:28.680Z,92634.66
2023-03-25T04:20:00.376Z,92636.50
2023-03-25T04:21:32.327Z,92639.06
2023-03-25T04:23:04.881Z,92637.13
2023-03-25T04:24:37.929Z,92631.88
2023-03-25T04:26:09.462Z,92641.91
2023-03-25T04:27:40.983Z,92635.06
2023-03-25T04:29:13.935Z,92641.81
2023-03-25T04:30:45.545Z,92649.34
2023-03-25T04:32:17.793Z,92649.16
2023-03-25T04:33:50.822Z,92647.88
2023-03-25T04:35:22.452Z,92644.13
2023-03-25T04:36:55.676Z,92647.88
2023-03-25T04:38:29.785Z,92650.25
2023-03-25T04:40:01.605Z,92642.81
2023-03-25T04:41:33.759Z,92646.88
2023-03-25T04:43:05.483Z,92652.03
2023-03-25T04:44:39.397Z,92649.97
2023-03-25T04:46:12.306Z,92646.19
2023-03-25T04:47:47.210Z,92646.97
2023-03-25T04:49:21.607Z,92650.44
2023-03-25T04:50:56.308Z,92648.09
2023-03-25T04:52:27.919Z,92647.19
2023-03-25T04:54:00.206Z,92646.28
2023-03-25T04:55:34.825Z,92648.06
2023-03-25T04:57:08.875Z,92656.97
2023-03-25T04:58:40.816Z,92645.88
2023-03-25T05:00:13.496Z,92650.41
2023-03-25T05:01:46.136Z,92641.06
2023-03-25T05:03:18.394Z,92641.03
2023-03-25T05:04:50.317Z,92636.53
2023-03-25T05:06:22.702Z,92639.25
2023-03-25T05:07:55.528Z,92645.19
2023-03-25T05:09:27.086Z,92644.16
2023-03-25T05:10:58.815Z,92633.69
2023-03-25T05:12:30.423Z,92630.31
2023-03-25T05:14:01.913Z,92629.13
2023-03-25T05:15:35.722Z,92636.78
2023-03-25T05:17:07.268Z,92632.91
2023-03-25T05:18:38.777Z,92634.81
2023-03-25T05:20:10.782Z,92631.84
2023-03-25T05:21:42.460Z,92630.44
2023-03-25T05:23:18.263Z,92642.13
2023-03-25T05:24:53.447Z,92629.84
2023-03-25T05:26:25.275Z,92632.84
2023-03-25T05:27:57.166Z,92630.78
2023-03-25T05:29:34.126Z,92633.34
2023-03-25T05:31:08.611Z,92635.91
2023-03-25T05:32:41.398Z,92633.84
2023-03-25T05:34:14.757Z,92628.66
2023-03-25T05:35:46.679Z,92635.44
2023-03-25T05:37:18.350Z,92633.91
2023-03-25T05:38:49.883Z,92637.72
2023-03-25T05:40:21.609Z,92633.94
2023-03-25T05:41:55.857Z,92637.41
2023-03-25T05:43:27.623Z,92637.91
2023-03-25T05:45:00.132Z,92636.97
2023-03-25T05:46:31.885Z,92640.56
2023-03-25T05:48:04.258Z,92638.06
2023-03-25T05:49:38.112Z,92638.38
2023-03-25T05:51:13.857Z,92639.00
2023-03-25T05:52:45.634Z,92641.66
2023-03-25T05:54:17.197Z,92637.22
2023-03-25T05:55:52.370Z,92636.53
2023-03-25T05:57:24.324Z,92646.97
2023-03-25T05:58:57.612Z,92646.34
2023-03-25T06:00:30.603Z,92651.25
2023-03-25T06:02:02.387Z,92647.72
2023-03-25T06:03:34.857Z,92648.34
2023-03-25T06:05:06.615Z,92654.72
2023-03-25T06:06:38.165Z,92650.09
2023-03-25T06:08:09.864Z,92649.00
2023-03-25T06:09:46.277Z,92645.31
2023-03-25T06:11:19.411Z,92641.59
2023-03-25T06:12:53.177Z,92645.16
2023-03-25T06:14:25.778Z,92636.53
2023-03-25T06:15:58.341Z,92646.88
2023-03-25T06:17:29.972Z,92634.72
2023-03-25T06:19:03.276Z,92646.06
2023-03-25T06:20:34.844Z,92645.00
2023-03-25T06:22:09.498Z,92646.53
2023-03-25T06:23:41.136Z,92647.91
2023-03-25T06:25:14.041Z,92639.63
2023-03-25T06:26:48.515Z,92640.50
2023-03-25T06:28:20.230Z,92644.09
2023-03-25T06:29:52.301Z,92651.06
2023-03-25T06:31:26.805Z,92651.53
2023-03-25T06:33:03.190Z,92652.25
2023-03-25T06:34:34.925Z,92656.78
2023-03-25T06:36:08.387Z,92649.28
2023-03-25T06:37:40.158Z,92653.88
2023-03-25T06:39:11.686Z,92656.38
2023-03-25T06:40:43.349Z,92655.69
2023-03-25T06:42:15.011Z,92654.50
2023-03-25T06:43:47.098Z,92656.44
2023-03-25T06:45:18.813Z,92647.25
2023-03-25T06:46:51.018Z,92652.53
2023-03-25T06:48:22.614Z,92647.06
2023-03-25T06:49:55.442Z,92649.09
2023-03-25T06:51:27.434Z,92649.56
2023-03-25T06:52:59.087Z,92653.06
2023-03-25T06:54:30.689Z,92651.72
2023-03-25T06:56:02.395Z,92656.78
2023-03-25T06:57:33.937Z,92658.59
2023-03-25T06:59:06.150Z,92649.78
2023-03-25T07:00:38.097Z,92655.63
2023-03-25T07:02:12.573Z,92660.47
2023-03-25T07:03:44.248Z,92656.94
2023-03-25T07:05:16.042Z,92653.06
2023-03-25T07:06:47.744Z,92654.19
2023-03-25T07:08:19.599Z,92653.97
2023-03-25T07:09:51.979Z,92654.16
2023-03-25T07:11:25.249Z,92654.44
2023-03-25T07:12:56.713Z,92655.41
2023-03-25T07:14:28.648Z,92650.88
2023-03-25T07:16:00.379Z,92661.16
2023-03-25T07:17:32.132Z,92657.47
2023-03-25T07:19:03.985Z,92639.91
2023-03-25T07:20:35.794Z,92648.09
2023-03-25T07:22:07.258Z,92645.97
2023-03-25T07:23:38.821Z,92645.81
2023-03-25T07:25:10.357Z,92651.19
2023-03-25T07:26:41.956Z,92654.94
2023-03-25T07:28:13.613Z,92654.94
2023-03-25T07:29:46.102Z,92651.88
2023-03-25T07:31:17.802Z,92660.09
2023-03-25T07:32:49.467Z,92658.53
2023-03-25T07:34:21.899Z,92651.44
2023-03-25T07:35:53.981Z,92646.00
2023-03-25T07:37:25.966Z,92649.59
2023-03-25T07:38:57.619Z,92650.38
2023-03-25T07:40:29.162Z,92660.53
2023-03-25T07:42:00.786Z,92652.56
2023-03-25T07:43:33.084Z,92658.50
2023-03-25T07:45:07.804Z,92649.47
2023-03-25T07:46:39.530Z,92647.97
2023-03-25T07:48:14.856Z,92644.63
2023-03-25T07:49:47.848Z,92647.06
2023-03-25T07:51:20.123Z,92641.78
2023-03-25T07:52:52.114Z,92645.47
2023-03-25T07:54:24.606Z,92640.16
2023-03-25T07:55:56.594Z,92640.53
2023-03-25T07:57:28.344Z,92635.16
2023-03-25T07:59:00.174Z,92635.88
2023-03-25T08:00:31.823Z,92638.72
2023-03-25T08:02:03.589Z,92638.00
2023-03-25T08:03:35.630Z,92643.09
2023-03-25T08:05:07.523Z,92640.16
2023-03-25T08:06:39.292Z,92630.63
2023-03-25T08:08:11.086Z,92634.34
2023-03-25T08:09:42.892Z,92631.97
2023-03-25T08:11:14.641Z,92628.38
2023-03-25T08:12:46.303Z,92623.59
2023-03-25T08:14:18.108Z,92625.38
2023-03-25T08:15:50.402Z,92623.53
2023-03-25T08:17:22.121Z,92624.97
2023-03-25T08:18:54.321Z,92628.63
2023-03-25T08:20:26.089Z,92623.72
2023-03-25T08:21:57.984Z,92628.03
2023-03-25T08:23:29.677Z,92628.81
2023-03-25T08:25:01.745Z,92630.94
2023-03-25T08:26:33.940Z,92622.28
2023-03-25T08:28:06.815Z,92619.53
2023-03-25T08:29:38.783Z,92615.03
2023-03-25T08:31:12.163Z,92611.94
2023-03-25T08:32:46.400Z,92607.72
2023-03-25T08:34:18.785Z,92611.84
2023-03-25T08:35:52.087Z,92613.16
2023-03-25T08:37:26.093Z,92612.94
2023-03-25T08:38:57.893Z,92614.34
2023-03-25T08:40:31.261Z,92608.69
2023-03-25T08:42:03.480Z,92602.69
2023-03-25T08:43:35.760Z,92604.84
2023-03-25T08:45:07.786Z,92599.81
2023-03-25T08:46:39.740Z,92600.19
2023-03-25T08:48:11.400Z,92606.06
2023-03-25T08:49:43.464Z,92599.75
2023-03-25T08:51:15.438Z,92602.47
2023-03-25T08:52:47.513Z,92595.56
2023-03-25T08:54:19.286Z,92597.31
2023-03-25T08:55:52.094Z,92599.78
2023-03-25T08:57:24.352Z,92598.69
2023-03-25T08:58:56.225Z,92597.19
2023-03-25T09:00:28.370Z,92594.34
2023-03-25T09:02:01.453Z,92590.50
2023-03-25T09:03:34.054Z,92595.28
2023-03-25T09:05:06.129Z,92590.59
2023-03-25T09:06:48.229Z,92590.41
2023-03-25T09:08:31.086Z,92587.25
2023-03-25T09:10:04.269Z,92580.69
2023-03-25T09:13:08.033Z,92573.47
2023-03-25T09:14:39.852Z,92581.25
2023-03-25T09:16:12.135Z,92577.38
2023-03-25T09:17:43.912Z,92573.84
2023-03-25T09:19:15.773Z,92566.44
2023-03-25T09:20:48.510Z,92568.06
2023-03-25T09:22:20.256Z,92564.28
2023-03-25T09:23:51.922Z,92560.47
2023-03-25T09:25:23.605Z,92559.28
2023-03-25T09:26:55.755Z,92553.06
2023-03-25T09:28:29.329Z,92553.84
2023-03-25T09:30:01.674Z,92559.38
2023-03-25T09:31:33.807Z,92552.75
2023-03-25T09:33:06.017Z,92550.81
2023-03-25T09:34:39.328Z,92545.81
2023-03-25T09:36:12.465Z,92545.91
2023-03-25T09:37:44.439Z,92541.31
2023-03-25T09:39:16.384Z,92541.38
2023-03-25T09:40:48.090Z,92547.88
2023-03-25T09:42:22.588Z,92539.66
2023-03-25T09:43:54.257Z,92542.91
2023-03-25T09:45:30.277Z,92536.78
2023-03-25T09:47:02.193Z,92536.09
2023-03-25T09:48:40.582Z,92533.03
2023-03-25T09:50:13.729Z,92531.59
2023-03-25T09:51:45.251Z,92535.16
2023-03-25T09:53:25.685Z,92527.00
2023-03-25T09:54:58.958Z,92524.66
2023-03-25T09:56:32.045Z,92520.75
2023-03-25T09:58:22.502Z,92520.38
2023-03-25T09:59:54.234Z,92522.75
2023-03-25T10:01:27.184Z,92512.97
2023-03-25T10:03:08.148Z,92514.53
2023-03-25T10:04:54.836Z,92517.28
2023-03-25T10:06:27.417Z,92512.19
2023-03-25T10:08:14.761Z,92514.91
2023-03-25T10:10:05.828Z,92511.78
2023-03-25T10:11:37.456Z,92515.72
2023-03-25T10:13:09.468Z,92520.81
2023-03-25T10:14:47.579Z,92507.50
2023-03-25T10:16:19.454Z,92508.28
2023-03-25T10:18:10.028Z,92503.97
2023-03-25T10:19:53.970Z,92496.13
2023-03-25T10:21:44.754Z,92495.34
2023-03-25T10:23:24.492Z,92489.44
2023-03-25T10:24:57.204Z,92490.56
2023-03-25T10:26:41.549Z,92487.78
2023-03-25T10:28:16.615Z,92485.41
2023-03-25T10:30:11.695Z,92482.22
2023-03-25T10:31:53.509Z,92483.72
2023-03-25T10:33:38.097Z,92477.09
2023-03-25T10:35:11.779Z,92481.78
2023-03-25T10:36:45.722Z,92472.75
2023-03-25T10:38:21.702Z,92480.59
2023-03-25T10:39:53.887Z,92465.66
2023-03-25T10:41:35.795Z,92475.84
2023-03-25T10:43:17.380Z,92470.34
2023-03-25T10:44:49.244Z,92469.53
2023-03-25T10:46:21.476Z,92466.78
2023-03-25T10:47:54.658Z,92470.69
2023-03-25T10:49:27.514Z,92471.09
2023-03-25T10:51:07.926Z,92460.09
2023-03-25T10:52:39.569Z,92460.03
2023-03-25T10:54:14.344Z,92462.75
2023-03-25T10:55:46.140Z,92452.56
2023-03-25T10:57:22.562Z,92452.88
2023-03-25T10:58:55.259Z,92450.84
2023-03-25T11:00:28.243Z,92446.94
2023-03-25T11:02:01.435Z,92443.00
2023-03-25T11:03:34.662Z,92438.22
2023-03-25T11:05:06.692Z,92441.66
2023-03-25T11:06:40.215Z,92438.09
2023-03-25T11:08:22.186Z,92426.25
2023-03-25T11:10:16.294Z,92422.34
2023-03-25T11:11:48.165Z,92432.16
2023-03-25T11:13:22.379Z,92435.75
2023-03-25T11:14:55.127Z,92428.38
2023-03-25T11:16:27.465Z,92437.75
2023-03-25T11:17:59.751Z,92427.59
2023-03-25T11:19:32.160Z,92422.50
2023-03-25T11:21:05.698Z,92426.81
2023-03-25T11:22:37.513Z,92419.34
2023-03-25T11:24:09.783Z,92428.00
2023-03-25T11:25:42.450Z,92431.91
2023-03-25T11:27:20.368Z,92421.25
2023-03-25T11:28:56.412Z,92416.13
2023-03-25T11:30:28.217Z,92423.66
2023-03-25T11:32:13.774Z,92413.44
2023-03-25T11:33:46.456Z,92416.53
2023-03-25T11:35:28.668Z,92412.25
2023-03-25T11:37:02.252Z,92416.63
2023-03-25T11:38:35.858Z,92409.63
2023-03-25T11:40:11.880Z,92412.00
2023-03-25T11:41:43.561Z,92413.66
2023-03-25T11:43:15.797Z,92403.06
2023-03-25T11:44:51.565Z,92408.88
2023-03-25T11:46:23.276Z,92402.56
2023-03-25T11:47:58.269Z,92394.25
2023-03-25T11:49:30.234Z,92386.78
2023-03-25T11:51:03.026Z,92385.63
2023-03-25T11:52:45.024Z,92389.53
2023-03-25T11:54:16.965Z,92378.03
2023-03-25T11:55:52.684Z,92373.22
2023-03-25T11:57:25.112Z,92371.53
2023-03-25T11:58:57.933Z,92380.69
2023-03-25T12:00:33.023Z,92375.78
2023-03-25T12:02:24.974Z,92368.69
2023-03-25T12:04:06.395Z,92370.28
2023-03-25T12:05:38.135Z,92368.47
2023-03-25T12:07:10.345Z,92363.84
2023-03-25T12:08:44.810Z,92359.69
2023-03-25T12:10:37.286Z,92365.25
2023-03-25T12:12:12.183Z,92363.03
2023-03-25T12:13:52.840Z,92365.53
2023-03-25T12:15:27.830Z,92351.94
2023-03-25T12:17:05.720Z,92353.13
2023-03-25T12:18:54.465Z,92353.13
2023-03-25T12:20:28.545Z,92353.44
2023-03-25T12:22:06.095Z,92358.53
2023-03-25T12:23:40.953Z,92348.72
2023-03-25T12:25:16.716Z,92353.91
2023-03-25T12:27:07.818Z,92346.19
2023-03-25T12:28:39.826Z,92351.38
2023-03-25T12:30:11.522Z,92347.13
2023-03-25T12:31:52.834Z,92356.22
2023-03-25T12:33:30.591Z,92348.75
2023-03-25T12:35:09.167Z,92343.28
2023-03-25T12:36:48.406Z,92343.66
2023-03-25T12:38:23.269Z,92333.84
2023-03-25T12:40:13.026Z,92344.41
2023-03-25T12:41:57.422Z,92330.34
2023-03-25T12:43:58.612Z,92343.28
2023-03-25T12:45:30.953Z,92332.38
2023-03-25T12:47:02.845Z,92334.81
2023-03-25T12:48:43.885Z,92344.66
2023-03-25T12:50:16.862Z,92340.38
2023-03-25T12:51:48.916Z,92326.25
2023-03-25T12:53:20.568Z,92333.63
2023-03-25T12:55:04.557Z,92335.56
2023-03-25T12:56:40.937Z,92334.19
2023-03-25T12:58:15.626Z,92332.75
2023-03-25T13:00:01.372Z,92329.72
2023-03-25T13:01:39.315Z,92334.03
2023-03-25T13:03:18.396Z,92325.44
2023-03-25T13:04:57.958Z,92327.03
2023-03-25T13:06:38.651Z,92330.56
2023-03-25T13:08:31.233Z,92331.38
2023-03-25T13:10:08.978Z,92332.97
2023-03-25T13:11:41.338Z,92325.09
2023-03-25T13:13:14.290Z,92321.97
2023-03-25T13:14:50.255Z,92324.31
2023-03-25T13:16:24.009Z,92321.16
2023-03-25T13:18:00.389Z,92321.16
2023-03-25T13:19:34.874Z,92318.00
2023-03-25T13:21:14.081Z,92317.59
2023-03-25T13:22:50.520Z,92316.41
2023-03-25T13:24:36.168Z,92313.25
2023-03-25T13:26:09.017Z,92307.78
2023-03-25T13:27:43.610Z,92317.97
2023-03-25T13:29:32.107Z,92314.06
2023-03-25T13:31:05.497Z,92309.75
2023-03-25T13:32:39.103Z,92311.72
2023-03-25T13:34:20.384Z,92316.84
2023-03-25T13:35:52.793Z,92313.75
2023-03-25T13:37:25.730Z,92315.34
2023-03-25T13:38:58.137Z,92340.03
2023-03-25T13:41:02.713Z,92333.81
2023-03-25T13:42:53.185Z,92322.03
2023-03-25T13:44:27.384Z,92330.22
2023-03-25T13:46:15.180Z,92343.09
2023-03-25T13:48:11.739Z,92366.13
2023-03-25T13:49:53.297Z,92367.53
2023-03-25T13:51:25.592Z,92360.75
2023-03-25T13:53:11.033Z,92359.88
2023-03-25T13:54:42.649Z,92349.63
2023-03-25T13:56:17.481Z,92351.47
2023-03-25T13:58:09.309Z,92349.41
2023-03-25T14:00:21.781Z,92363.38
2023-03-25T14:01:55.080Z,92379.72
2023-03-25T14:03:28.400Z,92392.97
2023-03-25T14:05:18.820Z,92396.41
2023-03-25T14:07:10.085Z,92404.50
2023-03-25T14:08:48.900Z,92402.09
2023-03-25T14:10:25.461Z,92409.06
2023-03-25T14:11:57.427Z,92400.78
2023-03-25T14:13:31.067Z,92398.66
2023-03-25T14:15:04.784Z,92405.16
2023-03-25T14:16:37.833Z,92410.53
2023-03-25T14:18:14.275Z,92400.34
2023-03-25T14:19:49.739Z,92404.47
2023-03-25T14:21:25.181Z,92399.25
2023-03-25T14:22:57.809Z,92384.34
2023-03-25T14:24:30.671Z,92379.94
2023-03-25T14:26:02.783Z,92378.50
2023-03-25T14:27:34.730Z,92377.38
2023-03-25T14:29:11.992Z,92371.94
2023-03-25T14:30:43.741Z,92358.78
2023-03-25T14:32:21.803Z,92348.81
2023-03-25T14:34:02.649Z,92337.69
2023-03-25T14:35:34.638Z,92333.00
2023-03-25T14:37:09.693Z,92339.66
2023-03-25T14:38:54.689Z,92331.69
2023-03-25T14:40:59.091Z,92334.97
2023-03-25T14:42:43.646Z,92329.97
2023-03-25T14:44:18.584Z,92323.03
2023-03-25T14:45:54.626Z,92327.91
2023-03-25T14:47:27.086Z,92326.59
2023-03-25T14:49:04.705Z,92330.41
2023-03-25T14:50:36.557Z,92330.75
2023-03-25T14:52:10.927Z,92322.53
2023-03-25T14:53:43.091Z,92316.25
2023-03-25T14:55:22.020Z,92325.44
2023-03-25T14:56:56.049Z,92319.75
2023-03-25T14:58:28.483Z,92321.38
2023-03-25T15:00:14.138Z,92317.88
2023-03-25T15:01:46.034Z,92321.31
2023-03-25T15:03:18.195Z,92317.53
2023-03-25T15:05:11.733Z,92319.97
2023-03-25T15:06:44.170Z,92318.06
2023-03-25T15:08:16.967Z,92309.97
2023-03-25T15:09:52.371Z,92314.78
2023-03-25T15:11:36.760Z,92297.13
2023-03-25T15:13:21.842Z,92300.84
2023-03-25T15:14:57.329Z,92293.28
2023-03-25T15:16:33.317Z,92297.69
2023-03-25T15:18:05.149Z,92300.47
2023-03-25T15:19:56.216Z,92291.63
2023-03-25T15:21:31.623Z,92300.25
2023-03-25T15:23:35.702Z,92299.53
2023-03-25T15:25:11.822Z,92286.38
2023-03-25T15:26:44.213Z,92285.19
2023-03-25T15:28:21.415Z,92274.69
2023-03-25T15:30:17.452Z,92280.03
2023-03-25T15:32:01.655Z,92279.66
2023-03-25T15:33:53.852Z,92280.09
2023-03-25T15:35:32.189Z,92282.47
2023-03-25T15:37:28.169Z,92272.31
2023-03-25T15:39:25.131Z,92275.38
2023-03-25T15:41:01.687Z,92279.66
2023-03-25T15:42:39.097Z,92272.38
2023-03-25T15:44:24.236Z,92278.69
2023-03-25T15:45:56.802Z,92280.16
2023-03-25T15:47:28.816Z,92282.47
2023-03-25T15:49:11.433Z,92279.03
2023-03-25T15:50:43.773Z,92271.59
2023-03-25T15:52:42.038Z,92272.75
2023-03-25T15:54:17.535Z,92279.03
2023-03-25T15:55:55.909Z,92282.56
2023-03-25T15:57:32.421Z,92278.78
2023-03-25T15:59:06.204Z,92278.78
2023-03-25T16:00:39.369Z,92273.00
2023-03-25T16:02:17.751Z,92276.25
2023-03-25T16:03:52.834Z,92276.00
2023-03-25T16:05:29.109Z,92280.72
2023-03-25T16:07:01.042Z,92286.22
2023-03-25T16:08:39.963Z,92291.31
2023-03-25T16:10:22.421Z,92282.47
2023-03-25T16:11:58.904Z,92279.75
2023-03-25T16:13:30.681Z,92278.59
2023-03-25T16:15:04.757Z,92274.59
2023-03-25T16:16:37.243Z,92270.63
2023-03-25T16:18:09.835Z,92269.84
2023-03-25T16:19:42.620Z,92271.06
2023-03-25T16:21:14.253Z,92271.06
2023-03-25T16:22:47.319Z,92273.78
2023-03-25T16:24:20.840Z,92278.50
2023-03-25T16:25:54.640Z,92282.03
2023-03-25T16:27:30.833Z,92274.25
2023-03-25T16:29:09.440Z,92280.72
2023-03-25T16:30:43.351Z,92275.22
2023-03-25T16:32:19.253Z,92265.91
2023-03-25T16:33:52.097Z,92263.69
2023-03-25T16:35:24.086Z,92271.22
2023-03-25T16:36:56.666Z,92263.44
2023-03-25T16:38:28.850Z,92260.91
2023-03-25T16:40:08.619Z,92261.94
2023-03-25T16:41:44.735Z,92262.56
2023-03-25T16:43:20.228Z,92255.03
2023-03-25T16:44:51.803Z,92255.31
2023-03-25T16:46:24.490Z,92261.97
2023-03-25T16:47:56.180Z,92262.19
2023-03-25T16:49:31.865Z,92258.13
2023-03-25T16:51:34.189Z,92261.88
2023-03-25T16:53:06.240Z,92253.50
2023-03-25T16:54:43.805Z,92257.06
2023-03-25T16:56:15.467Z,92269.56
2023-03-25T16:57:47.346Z,92259.50
2023-03-25T16:59:20.787Z,92261.72
2023-03-25T17:00:53.638Z,92265.84
2023-03-25T17:02:32.873Z,92257.66
2023-03-25T17:04:14.800Z,92264.66
2023-03-25T17:06:06.550Z,92264.72
2023-03-25T17:07:38.707Z,92259.63
2023-03-25T17:09:10.988Z,92258.81
2023-03-25T17:10:49.690Z,92259.06
2023-03-25T17:12:21.794Z,92255.38
2023-03-25T17:13:54.973Z,92259.31
2023-03-25T17:15:26.725Z,92254.38
2023-03-25T17:16:58.581Z,92247.97
2023-03-25T17:18:30.495Z,92251.66
2023-03-25T17:20:06.264Z,92257.78
2023-03-25T17:21:38.574Z,92253.94
2023-03-25T17:23:19.201Z,92259.81
2023-03-25T17:24:53.834Z,92254.78
2023-03-25T17:26:26.239Z,92260.16
2023-03-25T17:28:01.016Z,92259.19
2023-03-25T17:29:32.767Z,92257.91
2023-03-25T17:31:18.591Z,92257.28
2023-03-25T17:32:51.242Z,92259.81
2023-03-25T17:34:23.995Z,92251.56
2023-03-25T17:35:56.510Z,92254.63
2023-03-25T17:37:28.473Z,92254.25
2023-03-25T17:39:02.541Z,92256.63
2023-03-25T17:40:35.678Z,92254.00
2023-03-25T17:42:08.394Z,92247.81
2023-03-25T17:43:44.227Z,92254.16
2023-03-25T17:45:16.163Z,92255.16
2023-03-25T17:46:49.034Z,92249.59
2023-03-25T17:48:21.530Z,92255.69
2023-03-25T17:49:53.336Z,92254.47
2023-03-25T17:51:25.841Z,92257.88
2023-03-25T17:52:57.772Z,92252.03
2023-03-25T17:54:29.721Z,92254.31
2023-03-25T17:56:04.046Z,92253.88
2023-03-25T17:57:37.511Z,92255.88
2023-03-25T17:59:19.441Z,92257.00
2023-03-25T18:00:52.449Z,92254.31
2023-03-25T18:02:24.438Z,92251.66
2023-03-25T18:03:56.445Z,92257.88
2023-03-25T18:05:28.264Z,92250.88
2023-03-25T18:06:59.918Z,92257.97
2023-03-25T18:08:33.802Z,92258.06
2023-03-25T18:10:14.248Z,92253.88
2023-03-25T18:11:46.425Z,92258.13
2023-03-25T18:13:18.746Z,92253.88
2023-03-25T18:14:50.677Z,92248.44
2023-03-25T18:16:22.958Z,92256.19
2023-03-25T18:17:55.621Z,92255.84
2023-03-25T18:19:27.940Z,92256.63
2023-03-25T18:21:04.748Z,92253.56
2023-03-25T18:22:36.985Z,92255.94
2023-03-25T18:24:09.387Z,92262.94
2023-03-25T18:25:41.294Z,92258.22
2023-03-25T18:27:14.661Z,92254.63
2023-03-25T18:28:46.544Z,92261.19
2023-03-25T18:30:19.001Z,92261.63
2023-03-25T18:31:51.076Z,92258.56
2023-03-25T18:33:24.269Z,92259.78
2023-03-25T18:34:56.660Z,92260.91
2023-03-25T18:36:28.492Z,92269.81
2023-03-25T18:38:00.985Z,92261.25
2023-03-25T18:39:32.983Z,92263.19
2023-03-25T18:41:05.143Z,92263.47